Willow Grove, Texas
Current Conditions -  °F | °C
As of 4:15 AM on Thursday 29 Jan 2015 (Local Time) from KTPL Reporting Station
Clear Clear  
Wind Chill: 50°   Ceiling: Unl
Heat Index: 50°   Visibility: 10mi
Dew Point: 43°   Wind: 8mph
Humidity: 76%   Direction: 170°S
Pressure: 30.11"   Gusts: NA
Location:  31.2688°N, 97.3985°W
Report Text: KTPL 291015Z AUTO 17007KT 10SM CLR 10/06 A3011 RMK AO1
Loading
Personal Weather Stations






























Interactive Weather Map New forecast layout! Learn more

10-Day Weather Forecast

Advertisements
Track Severe Weather on mobile